createdAt,value
2023-01-29T00:01:47.438Z,11.38
2023-01-29T00:04:14.120Z,13.20
2023-01-29T00:06:40.629Z,8.30
2023-01-29T00:09:07.377Z,15.52
2023-01-29T00:11:35.141Z,12.98
2023-01-29T00:14:02.045Z,12.88
2023-01-29T00:16:28.695Z,15.75
2023-01-29T00:18:55.350Z,13.65
2023-01-29T00:21:23.119Z,13.13
2023-01-29T00:23:50.745Z,12.77
2023-01-29T00:26:17.952Z,9.77
2023-01-29T00:28:44.724Z,9.93
2023-01-29T00:31:13.588Z,11.88
2023-01-29T00:33:40.538Z,16.08
2023-01-29T00:36:09.720Z,10.82
2023-01-29T00:41:30.225Z,13.63
2023-01-29T00:44:15.512Z,12.30
2023-01-29T00:46:42.360Z,11.20
2023-01-29T00:49:09.350Z,13.85
2023-01-29T00:51:36.964Z,12.25
2023-01-29T00:54:06.814Z,11.75
2023-01-29T00:56:36.652Z,8.45
2023-01-29T00:59:04.646Z,12.15
2023-01-29T01:01:49.922Z,18.77
2023-01-29T01:04:16.524Z,13.93
2023-01-29T01:06:43.698Z,12.43
2023-01-29T01:09:29.813Z,15.50
2023-01-29T01:11:56.372Z,14.45
2023-01-29T01:14:22.952Z,11.07
2023-01-29T01:16:49.922Z,11.43
2023-01-29T01:19:16.866Z,10.90
2023-01-29T01:21:45.577Z,13.05
2023-01-29T01:24:13.103Z,11.65
2023-01-29T01:26:39.780Z,9.98
2023-01-29T01:29:06.808Z,13.40
2023-01-29T01:31:33.537Z,15.57
2023-01-29T01:34:00.170Z,12.80
2023-01-29T01:36:26.812Z,13.98
2023-01-29T01:38:54.188Z,16.33
2023-01-29T01:41:22.471Z,11.57
2023-01-29T01:44:34.262Z,10.50
2023-01-29T01:47:01.828Z,14.10
2023-01-29T01:49:28.385Z,9.63
2023-01-29T01:51:55.037Z,11.23
2023-01-29T01:54:29.276Z,15.25
2023-01-29T01:57:09.416Z,11.63
2023-01-29T01:59:38.722Z,12.70
2023-01-29T02:02:25.323Z,9.75
2023-01-29T02:05:11.422Z,11.75
2023-01-29T02:08:05.102Z,17.15
2023-01-29T02:10:38.327Z,16.05
2023-01-29T02:13:07.115Z,9.02
2023-01-29T02:15:34.073Z,14.85
2023-01-29T02:18:00.715Z,10.55
2023-01-29T02:20:33.518Z,13.50
2023-01-29T02:23:37.213Z,14.00
2023-01-29T02:26:20.644Z,11.32
2023-01-29T02:29:22.300Z,9.55
2023-01-29T02:32:01.308Z,13.80
2023-01-29T02:37:32.713Z,14.23
2023-01-29T02:40:07.471Z,11.32
2023-01-29T02:42:41.053Z,13.77
2023-01-29T02:45:16.036Z,16.38
2023-01-29T02:47:48.584Z,12.73
2023-01-29T02:50:27.568Z,15.07
2023-01-29T02:53:24.302Z,12.40
2023-01-29T02:56:35.125Z,14.27
2023-01-29T02:59:19.335Z,18.90
2023-01-29T03:01:53.752Z,18.95
2023-01-29T03:04:29.259Z,17.27
2023-01-29T03:07:00.711Z,11.00
2023-01-29T03:09:32.972Z,14.15
2023-01-29T03:12:19.955Z,11.50
2023-01-29T03:15:08.554Z,11.50
2023-01-29T03:18:21.470Z,10.95
2023-01-29T03:20:54.065Z,17.70
2023-01-29T03:23:27.284Z,7.93
2023-01-29T03:26:18.010Z,12.07
2023-01-29T03:29:04.792Z,11.73
2023-01-29T03:31:51.702Z,9.98
2023-01-29T03:34:34.613Z,12.15
2023-01-29T03:37:14.336Z,12.50
2023-01-29T03:39:41.268Z,10.20
2023-01-29T03:42:30.042Z,13.77
2023-01-29T03:45:11.720Z,24.48
2023-01-29T03:48:10.713Z,10.60
2023-01-29T03:53:43.978Z,12.38
2023-01-29T03:56:28.851Z,17.83
2023-01-29T03:59:23.175Z,11.38
2023-01-29T04:02:03.563Z,11.55
2023-01-29T04:04:36.884Z,13.68
2023-01-29T04:07:14.692Z,10.95
2023-01-29T04:09:51.509Z,9.70
2023-01-29T04:12:23.433Z,10.95
2023-01-29T04:14:51.568Z,16.15
2023-01-29T04:17:27.919Z,14.30
2023-01-29T04:19:54.686Z,13.30
2023-01-29T04:22:26.486Z,13.32
2023-01-29T04:24:53.490Z,12.07
2023-01-29T04:27:41.218Z,12.85
2023-01-29T04:30:27.159Z,13.10
2023-01-29T04:33:12.169Z,13.02
2023-01-29T04:35:49.348Z,16.90
2023-01-29T04:38:44.816Z,12.88
2023-01-29T04:41:29.364Z,13.20
2023-01-29T04:44:20.766Z,12.30
2023-01-29T04:47:06.286Z,14.32
2023-01-29T04:49:43.554Z,17.35
2023-01-29T04:52:31.220Z,13.43
2023-01-29T04:55:20.374Z,18.95
2023-01-29T04:57:52.881Z,14.80
2023-01-29T05:00:26.011Z,10.80
2023-01-29T05:02:54.035Z,11.20
2023-01-29T05:05:21.274Z,13.65
2023-01-29T05:07:48.838Z,15.25
2023-01-29T05:10:19.652Z,15.15
2023-01-29T05:12:51.379Z,10.82
2023-01-29T05:15:23.388Z,10.55
2023-01-29T05:17:49.943Z,15.80
2023-01-29T05:20:19.843Z,11.93
2023-01-29T05:22:48.249Z,13.40
2023-01-29T05:25:25.114Z,17.75
2023-01-29T05:28:11.875Z,21.40
2023-01-29T05:30:39.907Z,11.27
2023-01-29T05:33:13.854Z,14.23
2023-01-29T05:35:40.469Z,19.83
2023-01-29T05:38:07.290Z,15.20
2023-01-29T05:40:33.855Z,14.27
2023-01-29T05:43:00.474Z,17.35
2023-01-29T05:45:28.574Z,16.08
2023-01-29T05:47:59.737Z,13.48
2023-01-29T05:50:27.282Z,16.02
2023-01-29T05:53:00.885Z,12.93
2023-01-29T05:55:29.664Z,16.38
2023-01-29T05:57:56.283Z,16.38
2023-01-29T06:00:23.167Z,16.67
2023-01-29T06:02:50.133Z,12.52
2023-01-29T06:05:16.825Z,10.18
2023-01-29T06:07:45.613Z,13.60
2023-01-29T06:10:17.672Z,11.32
2023-01-29T06:12:44.844Z,14.82
2023-01-29T06:15:12.899Z,17.90
2023-01-29T06:17:39.412Z,12.70
2023-01-29T06:20:06.586Z,12.40
2023-01-29T06:22:33.948Z,16.17
2023-01-29T06:25:00.754Z,16.25
2023-01-29T06:27:27.385Z,19.60
2023-01-29T06:29:53.960Z,14.13
2023-01-29T06:32:20.564Z,14.48
2023-01-29T06:34:49.466Z,20.25
2023-01-29T06:39:42.690Z,15.80
2023-01-29T06:42:10.030Z,18.25
2023-01-29T06:44:36.960Z,15.82
2023-01-29T06:47:03.918Z,11.68
2023-01-29T06:49:30.533Z,12.25
2023-01-29T06:51:57.392Z,12.52
2023-01-29T06:54:23.986Z,14.82
2023-01-29T06:56:51.494Z,15.40
2023-01-29T06:59:18.211Z,16.23
2023-01-29T07:01:44.947Z,22.55
2023-01-29T07:04:11.685Z,22.00
2023-01-29T07:06:38.345Z,10.32
2023-01-29T07:09:05.194Z,13.50
2023-01-29T07:11:32.238Z,12.55
2023-01-29T07:13:58.779Z,16.38
2023-01-29T07:16:26.457Z,14.93
2023-01-29T07:18:53.285Z,16.85
2023-01-29T07:21:20.020Z,16.27
2023-01-29T07:23:47.281Z,13.95
2023-01-29T07:26:13.940Z,11.90
2023-01-29T07:28:41.168Z,14.50
2023-01-29T07:31:08.880Z,12.80
2023-01-29T07:33:35.610Z,14.80
2023-01-29T07:36:02.715Z,11.20
2023-01-29T07:38:29.308Z,17.65
2023-01-29T07:40:56.157Z,23.15
2023-01-29T07:43:24.864Z,14.88
2023-01-29T07:45:51.977Z,15.90
2023-01-29T07:48:19.113Z,22.95
2023-01-29T07:50:45.911Z,19.00
2023-01-29T07:53:15.129Z,15.15
2023-01-29T07:55:45.835Z,16.63
2023-01-29T07:58:13.184Z,23.60
2023-01-29T08:00:39.780Z,19.13
2023-01-29T08:03:10.796Z,15.55
2023-01-29T08:05:37.955Z,18.73
2023-01-29T08:08:07.374Z,20.50
2023-01-29T08:10:36.238Z,53.92
2023-01-29T08:13:04.943Z,17.33
2023-01-29T08:15:32.262Z,20.13
2023-01-29T08:17:59.013Z,19.25
2023-01-29T08:20:26.209Z,16.65
2023-01-29T08:23:06.212Z,20.27
2023-01-29T08:25:33.679Z,13.35
2023-01-29T08:28:00.975Z,18.20
2023-01-29T08:30:30.087Z,20.77
2023-01-29T08:32:56.776Z,21.63
2023-01-29T08:35:23.541Z,20.30
2023-01-29T08:37:54.540Z,20.20
2023-01-29T08:40:24.093Z,23.25
2023-01-29T08:43:06.167Z,20.55
2023-01-29T08:45:36.054Z,21.17
2023-01-29T08:48:02.924Z,21.77
2023-01-29T08:50:30.865Z,18.50
2023-01-29T08:53:02.616Z,19.17
2023-01-29T08:55:29.704Z,22.25
2023-01-29T08:57:59.395Z,16.08
2023-01-29T09:00:26.324Z,18.15
2023-01-29T09:02:52.916Z,20.75
2023-01-29T09:05:20.074Z,17.65
2023-01-29T09:07:46.958Z,20.02
2023-01-29T09:10:22.603Z,22.85
2023-01-29T09:12:49.208Z,19.55
2023-01-29T09:15:16.038Z,16.30
2023-01-29T09:17:43.204Z,18.02
2023-01-29T09:20:10.604Z,15.25
2023-01-29T09:22:38.629Z,16.15
2023-01-29T09:25:05.733Z,14.25
2023-01-29T09:27:32.359Z,13.65
2023-01-29T09:29:58.946Z,16.33
2023-01-29T09:32:51.695Z,18.58
2023-01-29T09:35:12.209Z,18.83
2023-01-29T09:37:38.824Z,16.98
2023-01-29T09:40:08.399Z,19.67
2023-01-29T09:42:48.664Z,13.07
2023-01-29T09:45:25.935Z,17.67
2023-01-29T09:47:58.534Z,18.63
2023-01-29T09:50:40.205Z,16.83
2023-01-29T09:53:46.443Z,15.20
2023-01-29T09:56:19.360Z,14.70
2023-01-29T09:58:46.127Z,15.30
2023-01-29T10:01:37.268Z,11.30
2023-01-29T10:04:13.008Z,12.88
2023-01-29T10:06:54.920Z,12.10
2023-01-29T10:09:47.746Z,12.30
2023-01-29T10:12:40.579Z,13.48
2023-01-29T10:15:41.442Z,14.68
2023-01-29T10:18:26.684Z,14.43
2023-01-29T10:21:28.685Z,12.25
2023-01-29T10:24:22.169Z,12.55
2023-01-29T10:26:50.992Z,14.25
2023-01-29T10:29:19.775Z,13.18
2023-01-29T10:31:51.044Z,12.77
2023-01-29T10:34:26.415Z,16.95
2023-01-29T10:36:55.954Z,11.20
2023-01-29T10:39:25.336Z,11.43
2023-01-29T10:41:58.832Z,12.75
2023-01-29T10:44:46.144Z,12.25
2023-01-29T10:47:41.748Z,16.02
2023-01-29T10:50:34.759Z,11.68
2023-01-29T10:53:14.417Z,11.68
2023-01-29T10:55:54.641Z,12.63
2023-01-29T10:58:49.153Z,17.92
2023-01-29T11:01:16.047Z,16.10
2023-01-29T11:03:42.735Z,13.00
2023-01-29T11:06:18.043Z,13.55
2023-01-29T11:09:01.472Z,13.00
2023-01-29T11:11:36.712Z,12.80
2023-01-29T11:14:13.437Z,17.30
2023-01-29T11:16:42.784Z,15.10
2023-01-29T11:19:09.992Z,13.60
2023-01-29T11:21:56.609Z,13.18
2023-01-29T11:24:24.056Z,13.80
2023-01-29T11:26:54.379Z,13.93
2023-01-29T11:29:45.506Z,13.48
2023-01-29T11:32:22.986Z,16.00
2023-01-29T11:35:18.864Z,12.27
2023-01-29T11:37:46.955Z,12.90
2023-01-29T11:40:22.509Z,13.35
2023-01-29T11:42:50.364Z,15.52
2023-01-29T11:45:32.450Z,12.40
2023-01-29T11:48:00.427Z,14.32
2023-01-29T11:50:33.400Z,16.20
2023-01-29T11:53:00.440Z,15.40
2023-01-29T11:55:44.350Z,14.73
2023-01-29T11:58:21.357Z,13.50
2023-01-29T12:00:52.140Z,14.88
2023-01-29T12:03:52.118Z,13.40
2023-01-29T12:06:23.191Z,12.70
2023-01-29T12:08:59.704Z,9.88
2023-01-29T12:11:32.002Z,13.07
2023-01-29T12:14:04.658Z,16.10
2023-01-29T12:16:38.527Z,12.95
2023-01-29T12:19:27.478Z,12.70
2023-01-29T12:22:03.748Z,10.40
2023-01-29T12:25:09.679Z,11.13
2023-01-29T12:27:54.702Z,13.23
2023-01-29T12:30:30.052Z,11.23
2023-01-29T12:33:02.670Z,11.40
2023-01-29T12:36:00.031Z,11.18
2023-01-29T12:38:26.786Z,12.55
2023-01-29T12:41:21.572Z,12.52
2023-01-29T12:43:59.154Z,9.52
2023-01-29T12:46:30.384Z,12.80
2023-01-29T12:49:06.792Z,11.07
2023-01-29T12:51:49.209Z,15.25
2023-01-29T12:54:23.344Z,12.88
2023-01-29T12:56:58.366Z,15.32
2023-01-29T12:59:31.434Z,14.15
2023-01-29T13:02:16.320Z,13.88
2023-01-29T13:04:48.648Z,12.38
2023-01-29T13:07:28.257Z,14.15
2023-01-29T13:10:04.060Z,13.07
2023-01-29T13:12:31.921Z,13.70
2023-01-29T13:15:17.615Z,14.20
2023-01-29T13:17:49.094Z,17.23
2023-01-29T13:20:28.540Z,17.23
2023-01-29T13:23:02.227Z,11.63
2023-01-29T13:25:28.864Z,13.13
2023-01-29T13:27:58.075Z,16.45
2023-01-29T13:30:33.423Z,19.70
2023-01-29T13:33:10.622Z,14.20
2023-01-29T13:35:41.857Z,19.65
2023-01-29T13:38:33.463Z,13.60
2023-01-29T13:41:06.455Z,13.88
2023-01-29T13:43:37.574Z,13.23
2023-01-29T13:46:21.539Z,16.92
2023-01-29T13:48:51.040Z,13.07
2023-01-29T13:51:21.929Z,15.60
2023-01-29T13:54:00.870Z,13.05
2023-01-29T13:56:33.196Z,14.38
2023-01-29T13:59:01.685Z,14.25
2023-01-29T14:01:46.559Z,12.20
2023-01-29T14:04:21.897Z,13.23
2023-01-29T14:06:54.977Z,15.35
2023-01-29T14:09:37.576Z,14.75
2023-01-29T14:12:24.414Z,15.73
2023-01-29T14:14:56.999Z,11.77
2023-01-29T14:17:26.409Z,14.15
2023-01-29T14:20:20.746Z,14.48
2023-01-29T14:22:56.459Z,13.50
2023-01-29T14:25:29.935Z,18.20
2023-01-29T14:27:58.914Z,12.90
2023-01-29T14:32:55.019Z,14.55
2023-01-29T14:35:30.403Z,20.95
2023-01-29T14:38:04.794Z,13.98
2023-01-29T14:40:32.674Z,12.20
2023-01-29T14:43:19.957Z,14.27
2023-01-29T14:45:48.689Z,14.88
2023-01-29T14:48:46.549Z,12.10
2023-01-29T14:51:15.407Z,18.38
2023-01-29T14:54:14.389Z,15.80
2023-01-29T14:56:48.702Z,14.07
2023-01-29T14:59:38.035Z,14.57
2023-01-29T15:02:37.137Z,17.48
2023-01-29T15:05:10.927Z,18.35
2023-01-29T15:07:52.356Z,18.52
2023-01-29T15:10:27.445Z,14.35
2023-01-29T15:13:15.841Z,14.63
2023-01-29T15:16:02.627Z,14.80
2023-01-29T15:18:40.036Z,12.68
2023-01-29T15:21:15.359Z,14.38
2023-01-29T15:23:43.388Z,18.55
2023-01-29T15:26:16.353Z,16.75
2023-01-29T15:28:47.091Z,12.75
2023-01-29T15:31:18.537Z,13.75
2023-01-29T15:33:48.257Z,15.63
2023-01-29T15:36:23.475Z,15.65
2023-01-29T15:39:15.307Z,18.23
2023-01-29T15:41:42.754Z,18.77
2023-01-29T15:44:29.608Z,13.38
2023-01-29T15:47:00.584Z,15.40
2023-01-29T15:49:34.137Z,20.88
2023-01-29T15:52:23.964Z,18.20
2023-01-29T15:54:51.389Z,18.08
2023-01-29T15:57:29.490Z,15.90
2023-01-29T15:59:58.582Z,23.03
2023-01-29T16:04:56.668Z,18.45
2023-01-29T16:07:23.410Z,18.27
2023-01-29T16:09:52.369Z,17.95
2023-01-29T16:14:46.558Z,21.60
2023-01-29T16:17:30.070Z,24.50
2023-01-29T16:19:59.271Z,25.88
2023-01-29T16:22:31.350Z,21.83
2023-01-29T16:25:05.333Z,23.10
2023-01-29T16:27:33.502Z,28.55
2023-01-29T16:30:02.199Z,19.07
2023-01-29T16:32:30.576Z,21.83
2023-01-29T16:35:00.922Z,19.40
2023-01-29T16:37:29.687Z,22.35
2023-01-29T16:39:56.743Z,25.38
2023-01-29T16:42:31.230Z,19.45
2023-01-29T16:45:05.171Z,25.15
2023-01-29T16:47:43.419Z,17.92
2023-01-29T16:50:46.435Z,20.37
2023-01-29T16:53:23.356Z,19.38
2023-01-29T16:55:52.560Z,18.20
2023-01-29T17:00:59.507Z,23.73
2023-01-29T17:03:28.859Z,21.42
2023-01-29T17:05:55.473Z,20.30
2023-01-29T17:08:34.160Z,22.70
2023-01-29T17:11:01.608Z,23.30
2023-01-29T17:13:43.775Z,20.50
2023-01-29T17:16:19.328Z,20.48
2023-01-29T17:18:45.926Z,24.55
2023-01-29T17:21:12.528Z,27.02
2023-01-29T17:23:39.799Z,24.15
2023-01-29T17:26:09.863Z,19.63
2023-01-29T17:28:36.512Z,23.40
2023-01-29T17:31:06.627Z,29.65
2023-01-29T17:33:35.419Z,28.65
2023-01-29T17:36:02.016Z,27.37
2023-01-29T17:38:28.879Z,26.75
2023-01-29T17:41:03.011Z,21.80
2023-01-29T17:43:29.576Z,26.45
2023-01-29T17:45:56.219Z,26.35
2023-01-29T17:48:25.196Z,26.60
2023-01-29T17:50:54.032Z,33.03
2023-01-29T17:53:22.705Z,24.98
2023-01-29T17:55:50.231Z,28.20
2023-01-29T17:58:20.862Z,30.17
2023-01-29T18:00:48.792Z,28.10
2023-01-29T18:03:16.032Z,22.13
2023-01-29T18:05:48.227Z,35.03
2023-01-29T18:08:26.959Z,25.88
2023-01-29T18:10:53.519Z,26.27
2023-01-29T18:13:20.086Z,34.28
2023-01-29T18:15:46.688Z,29.38
2023-01-29T18:18:20.040Z,77.10
2023-01-29T18:20:46.931Z,77.82
2023-01-29T18:23:13.577Z,59.03
2023-01-29T18:25:40.482Z,31.15
2023-01-29T18:28:07.567Z,33.33
2023-01-29T18:30:34.298Z,28.65
2023-01-29T18:33:00.965Z,33.33
2023-01-29T18:35:27.962Z,36.65
2023-01-29T18:37:55.052Z,34.97
2023-01-29T18:40:21.649Z,43.63
2023-01-29T18:42:48.205Z,41.15
2023-01-29T18:45:16.112Z,33.40
2023-01-29T18:47:42.968Z,29.58
2023-01-29T18:50:10.988Z,41.78
2023-01-29T18:52:37.631Z,37.72
2023-01-29T18:55:04.600Z,44.42
2023-01-29T18:58:24.633Z,35.05
2023-01-29T19:00:18.627Z,27.05
2023-01-29T19:02:45.874Z,31.40
2023-01-29T19:05:12.542Z,35.60
2023-01-29T19:07:39.097Z,27.48
2023-01-29T19:10:09.195Z,35.70
2023-01-29T19:12:35.805Z,24.75
2023-01-29T19:15:02.344Z,33.50
2023-01-29T19:17:28.997Z,33.05
2023-01-29T19:20:01.911Z,33.65
2023-01-29T19:22:29.448Z,31.85
2023-01-29T19:24:55.962Z,36.05
2023-01-29T19:27:22.578Z,41.55
2023-01-29T19:29:49.217Z,44.15
2023-01-29T19:32:16.002Z,38.92
2023-01-29T19:34:42.578Z,31.05
2023-01-29T19:37:09.163Z,37.33
2023-01-29T19:39:35.673Z,31.10
2023-01-29T19:42:02.326Z,37.28
2023-01-29T19:44:29.085Z,31.77
2023-01-29T19:46:55.876Z,35.72
2023-01-29T19:49:22.504Z,35.58
2023-01-29T19:51:49.085Z,35.25
2023-01-29T19:54:16.044Z,31.05
2023-01-29T19:56:42.648Z,44.63
2023-01-29T19:59:10.861Z,49.10
2023-01-29T20:01:37.546Z,37.33
2023-01-29T20:04:04.702Z,35.72
2023-01-29T20:06:38.180Z,35.83
2023-01-29T20:09:05.497Z,31.23
2023-01-29T20:11:47.707Z,34.45
2023-01-29T20:14:22.513Z,47.67
2023-01-29T20:16:59.545Z,30.67
2023-01-29T20:19:26.095Z,32.50
2023-01-29T20:21:52.718Z,32.05
2023-01-29T20:24:23.553Z,38.95
2023-01-29T20:26:50.279Z,32.80
2023-01-29T20:29:16.944Z,36.05
2023-01-29T20:31:43.530Z,32.47
2023-01-29T20:34:10.275Z,33.63
2023-01-29T20:36:36.860Z,29.73
2023-01-29T20:39:03.652Z,28.25
2023-01-29T20:41:30.345Z,29.42
2023-01-29T20:43:56.955Z,34.63
2023-01-29T20:46:23.539Z,26.90
2023-01-29T20:48:53.214Z,28.45
2023-01-29T20:51:20.220Z,29.88
2023-01-29T20:53:48.022Z,29.55
2023-01-29T20:56:16.427Z,37.88
2023-01-29T20:58:43.481Z,31.37
2023-01-29T21:01:16.633Z,33.25
2023-01-29T21:03:43.358Z,29.50
2023-01-29T21:06:11.326Z,34.67
2023-01-29T21:08:38.827Z,36.88
2023-01-29T21:11:07.695Z,36.88
2023-01-29T21:13:34.683Z,37.28
2023-01-29T21:16:02.425Z,29.50
2023-01-29T21:18:29.316Z,27.75
2023-01-29T21:20:58.851Z,29.73
2023-01-29T21:23:25.483Z,30.55
2023-01-29T21:25:52.077Z,29.30
2023-01-29T21:28:18.669Z,28.38
2023-01-29T21:30:45.343Z,28.80
2023-01-29T21:33:11.944Z,29.10
2023-01-29T21:35:38.538Z,31.27
2023-01-29T21:38:05.176Z,25.58
2023-01-29T21:40:32.384Z,24.90
2023-01-29T21:43:15.512Z,28.65
2023-01-29T21:45:43.075Z,29.73
2023-01-29T21:48:11.181Z,34.00
2023-01-29T21:50:38.425Z,36.53
2023-01-29T21:53:05.145Z,29.73
2023-01-29T21:55:32.515Z,33.38
2023-01-29T21:58:00.299Z,32.70
2023-01-29T22:00:27.241Z,34.22
2023-01-29T22:02:53.854Z,37.45
2023-01-29T22:05:20.603Z,43.58
2023-01-29T22:07:48.738Z,41.47
2023-01-29T22:10:17.598Z,30.87
2023-01-29T22:12:44.872Z,32.78
2023-01-29T22:15:12.370Z,32.53
2023-01-29T22:17:41.224Z,26.35
2023-01-29T22:20:12.325Z,28.38
2023-01-29T22:22:38.882Z,23.73
2023-01-29T22:25:05.931Z,32.75
2023-01-29T22:27:33.833Z,64.38
2023-01-29T22:30:00.520Z,35.20
2023-01-29T22:32:27.271Z,37.50
2023-01-29T22:34:53.825Z,36.08
2023-01-29T22:37:20.349Z,41.20
2023-01-29T22:39:47.047Z,56.30
2023-01-29T22:42:13.578Z,35.08
2023-01-29T22:44:40.265Z,29.75
2023-01-29T22:47:06.828Z,30.05
2023-01-29T22:49:33.411Z,24.42
2023-01-29T22:52:25.758Z,21.58
2023-01-29T22:54:52.340Z,27.42
2023-01-29T22:57:19.786Z,34.95
2023-01-29T22:59:46.444Z,31.90
2023-01-29T23:02:14.101Z,316.40
2023-01-29T23:04:40.983Z,215.93
2023-01-29T23:07:07.834Z,195.50
2023-01-29T23:09:34.404Z,33.90
2023-01-29T23:12:01.394Z,27.52
2023-01-29T23:14:28.035Z,24.95
2023-01-29T23:16:55.139Z,30.90
2023-01-29T23:19:21.882Z,30.60
2023-01-29T23:21:48.497Z,30.83
2023-01-29T23:24:15.217Z,27.23
2023-01-29T23:27:00.676Z,27.45
2023-01-29T23:29:27.244Z,27.08
2023-01-29T23:31:53.803Z,23.27
2023-01-29T23:34:20.980Z,28.70
2023-01-29T23:49:43.674Z,31.15
2023-01-29T23:52:10.291Z,30.58
2023-01-29T23:54:38.090Z,28.20
2023-01-29T23:57:04.674Z,34.85
2023-01-29T23:59:31.252Z,31.80
